Portada
METAR-TAF:

METAR-TAF

Aeroports :

Xiamen, Xina

latitud: 24-29N, longitud: 118-05E, altitud: 139 m

Observació

L'informe es va fer fa 49 minuts, a les 06:00 UTC
Vent 6 kt del Est/Sud-Est, variant entre Est/Nord-Est i Sud
Temperatura 25°C
Humitat 54%
Pressió 1017 hPa
Visibilitat 10 km o més
sense núvols per sota de 1500 mi sense presència de cumulonimbus.

METAR: ZSAM 280600Z 12003MPS 070V170 CAVOK 25/15 Q1017 NOSIG

Hora: 14:49 (06:49 UTC)

Pronòstic

L'informe es va fer fa 3 hores i 38 minuts, a les 03:11 UTC
Pronòstic vàlid del 28 a les 06 UTC al 29 a les 06 UTC
Vent 8 kt del Est/Sud-Est
Visibilitat: 6000 m
Cel ennuvolat a una alçada de 3000 ft

TAF: ZSAM 280311Z 2806/2906 12004MPS 6000 BKN030 TX25/2806Z TN15/2821Z

Observacions i pronòstics meteorològics de més de 4000 aeroports (METAR i TAF).

Les estacions disponibles són els punts grocs i vermells al mapa.

Posi el ratolí al punt desitjat per veure el nom de l'estació.

Feu clic per veure les observacions i els pronòstics meteorològics.

Per canviar el mapa: feu clic els botons verds amb una creu de color negre per apropar; al botó verd amb un guió per allunyar la imatge; o en les fletxes verdes per a mapes adjacents.


METAR-TAF: